createdAt,value
2018-09-25T00:02:09.706Z,98886.80
2018-09-25T00:04:46.201Z,98889.80
2018-09-25T00:07:22.664Z,98884.48
2018-09-25T00:09:58.918Z,98895.05
2018-09-25T00:12:35.271Z,98894.55
2018-09-25T00:15:11.747Z,98897.55
2018-09-25T00:17:48.038Z,98902.38
2018-09-25T00:20:24.340Z,98904.05
2018-09-25T00:23:00.710Z,98907.05
2018-09-25T00:25:36.847Z,98912.98
2018-09-25T00:28:13.151Z,98910.63
2018-09-25T00:30:49.446Z,98911.26
2018-09-25T00:33:25.881Z,98912.58
2018-09-25T00:36:02.256Z,98916.22
2018-09-25T00:38:38.501Z,98913.56
2018-09-25T00:41:16.560Z,98918.18
2018-09-25T00:43:52.887Z,98924.53
2018-09-25T00:46:29.258Z,98919.51
2018-09-25T00:49:05.831Z,98924.81
2018-09-25T00:51:42.074Z,98920.89
2018-09-25T00:54:18.403Z,98926.89
2018-09-25T00:56:54.799Z,98931.71
2018-09-25T00:59:30.976Z,98936.47
2018-09-25T01:02:07.485Z,98939.55
2018-09-25T01:04:44.102Z,98942.76
2018-09-25T01:07:20.546Z,98948.70
2018-09-25T01:09:56.779Z,98950.86
2018-09-25T01:12:33.181Z,98960.84
2018-09-25T01:15:09.438Z,98963.92
2018-09-25T01:17:45.959Z,98974.89
2018-09-25T01:20:22.285Z,98977.20
2018-09-25T01:22:58.773Z,98983.16
2018-09-25T01:25:35.207Z,98986.94
2018-09-25T01:28:11.543Z,98997.55
2018-09-25T01:30:47.851Z,98995.67
2018-09-25T01:33:24.180Z,98996.37
2018-09-25T01:36:00.384Z,98997.20
2018-09-25T01:38:36.983Z,99004.33
2018-09-25T01:41:13.541Z,99005.30
2018-09-25T01:43:51.605Z,99007.30
2018-09-25T01:46:27.858Z,99021.05
2018-09-25T01:49:04.076Z,99023.36
2018-09-25T01:51:39.892Z,99019.66
2018-09-25T01:54:16.031Z,99019.17
2018-09-25T01:56:51.792Z,99024.97
2018-09-25T01:59:28.567Z,99032.09
2018-09-25T02:02:04.804Z,99037.70
2018-09-25T02:04:41.246Z,99046.98
2018-09-25T02:07:17.675Z,99046.64
2018-09-25T02:09:54.267Z,99056.55
2018-09-25T02:12:30.656Z,99058.72
2018-09-25T02:15:07.210Z,99065.21
2018-09-25T02:17:43.526Z,99059.55
2018-09-25T02:20:19.646Z,99069.33
2018-09-25T02:22:56.721Z,99071.84
2018-09-25T02:25:33.804Z,99073.52
2018-09-25T02:28:10.431Z,99078.48
2018-09-25T02:30:46.930Z,99081.48
2018-09-25T02:33:23.300Z,99079.59
2018-09-25T02:35:59.990Z,99084.76
2018-09-25T02:38:36.390Z,99085.73
2018-09-25T02:41:12.813Z,99092.33
2018-09-25T02:43:49.188Z,99096.13
2018-09-25T02:46:25.794Z,99092.37
2018-09-25T02:49:02.363Z,99097.46
2018-09-25T02:51:38.664Z,99104.58
2018-09-25T02:54:15.001Z,99111.17
2018-09-25T02:56:51.320Z,99121.34
2018-09-25T02:59:27.727Z,99119.88
2018-09-25T03:02:03.991Z,99120.36
2018-09-25T03:04:40.404Z,99129.64
2018-09-25T03:07:17.109Z,99122.13
2018-09-25T03:09:53.605Z,99129.78
2018-09-25T03:12:30.028Z,99133.14
2018-09-25T03:15:06.272Z,99130.63
2018-09-25T03:17:43.048Z,99127.34
2018-09-25T03:20:19.162Z,99131.32
2018-09-25T03:22:55.171Z,99127.78
2018-09-25T03:25:31.360Z,99134.59
2018-09-25T03:28:08.140Z,99140.74
2018-09-25T03:30:44.523Z,99130.79
2018-09-25T03:33:20.688Z,99137.73
2018-09-25T03:35:57.010Z,99138.09
2018-09-25T03:38:33.331Z,99136.41
2018-09-25T03:41:09.746Z,99137.56
2018-09-25T03:43:46.117Z,99144.38
2018-09-25T03:46:22.494Z,99142.56
2018-09-25T03:48:58.836Z,99147.37
2018-09-25T03:51:35.273Z,99162.41
2018-09-25T03:54:12.170Z,99168.25
2018-09-25T03:56:48.767Z,99168.95
2018-09-25T03:59:25.300Z,99169.09
2018-09-25T04:02:01.860Z,99161.97
2018-09-25T04:04:38.746Z,99168.59
2018-09-25T04:07:15.207Z,99172.23
2018-09-25T04:09:51.833Z,99167.27
2018-09-25T04:12:28.104Z,99166.44
2018-09-25T04:15:04.609Z,99172.92
2018-09-25T04:17:41.214Z,99163.64
2018-09-25T04:20:17.688Z,99162.31
2018-09-25T04:22:54.091Z,99168.25
2018-09-25T04:25:30.545Z,99164.97
2018-09-25T04:28:06.735Z,99169.30
2018-09-25T04:30:43.185Z,99165.81
2018-09-25T04:33:19.296Z,99160.64
2018-09-25T04:35:55.782Z,99162.13
2018-09-25T04:38:31.864Z,99158.64
2018-09-25T04:41:08.232Z,99156.83
2018-09-25T04:43:44.309Z,99153.88
2018-09-25T04:46:20.722Z,99162.18
2018-09-25T04:48:58.071Z,99171.33
2018-09-25T04:51:34.672Z,99170.35
2018-09-25T04:54:11.269Z,99168.67
2018-09-25T04:56:47.655Z,99168.05
2018-09-25T04:59:24.608Z,99167.70
2018-09-25T05:02:00.836Z,99168.37
2018-09-25T05:04:37.089Z,99164.07
2018-09-25T05:07:13.558Z,99158.41
2018-09-25T05:09:49.533Z,99162.53
2018-09-25T05:12:25.933Z,99160.64
2018-09-25T05:15:02.266Z,99163.64
2018-09-25T05:17:38.815Z,99162.67
2018-09-25T05:20:15.184Z,99166.16
2018-09-25T05:22:51.763Z,99174.47
2018-09-25T05:25:28.141Z,99167.00
2018-09-25T05:28:04.541Z,99170.70
2018-09-25T06:42:42.956Z,99096.22
2018-09-25T06:45:24.163Z,99091.58
2018-09-25T06:48:00.701Z,99100.09
2018-09-25T06:50:37.301Z,99098.17
2018-09-25T06:53:16.950Z,99086.96
2018-09-25T06:55:53.018Z,99081.30
2018-09-25T06:58:29.320Z,99078.16
2018-09-25T07:01:05.537Z,99074.92
2018-09-25T07:03:41.895Z,99072.38
2018-09-25T07:06:17.773Z,99074.88
2018-09-25T07:11:39.251Z,99066.36
2018-09-25T07:14:15.325Z,99062.90
2018-09-25T07:16:51.622Z,99054.22
2018-09-25T07:19:28.081Z,99053.03
2018-09-25T07:22:04.509Z,99051.02
2018-09-25T07:24:40.909Z,99042.56
2018-09-25T07:27:17.376Z,99037.83
2018-09-25T07:29:53.597Z,99027.47
2018-09-25T07:32:30.067Z,99021.98
2018-09-25T07:35:06.337Z,99015.78
2018-09-25T07:37:42.898Z,99018.78
2018-09-25T07:40:19.195Z,99018.09
2018-09-25T07:42:55.679Z,99007.96
2018-09-25T07:45:32.474Z,99002.85
2018-09-25T07:48:09.623Z,98999.08
2018-09-25T07:50:46.475Z,99000.75
2018-09-25T07:53:22.945Z,99003.58
2018-09-25T07:55:59.266Z,98988.59
2018-09-25T07:58:35.695Z,98978.58
2018-09-25T08:01:12.073Z,98976.33
2018-09-25T08:03:48.373Z,98965.97
2018-09-25T08:06:24.717Z,98963.56
2018-09-25T08:09:00.801Z,98964.47
2018-09-25T08:11:37.324Z,98963.14
2018-09-25T08:14:13.534Z,98959.85
2018-09-25T08:16:49.844Z,98952.23
2018-09-25T08:19:26.402Z,98949.23
2018-09-25T08:22:02.576Z,98946.92
2018-09-25T08:24:38.947Z,98940.28
2018-09-25T08:27:15.429Z,98937.28
2018-09-25T08:29:51.847Z,98940.28
2018-09-25T08:32:28.474Z,98936.27
2018-09-25T08:35:05.094Z,98934.30
2018-09-25T08:37:41.727Z,98927.16
2018-09-25T08:40:18.365Z,98922.92
2018-09-25T08:42:54.743Z,98912.28
2018-09-25T08:45:31.020Z,98916.03
2018-09-25T08:48:07.235Z,98910.09
2018-09-25T08:50:43.659Z,98903.48
2018-09-25T08:53:20.222Z,98907.89
2018-09-25T08:55:56.721Z,98893.65
2018-09-25T08:58:32.934Z,98893.80
2018-09-25T09:01:09.920Z,98894.11
2018-09-25T09:03:46.105Z,98879.29
2018-09-25T09:06:22.472Z,98881.23
2018-09-25T09:08:58.713Z,98876.97
2018-09-25T09:11:35.116Z,98872.06
2018-09-25T09:14:11.428Z,98869.68
2018-09-25T09:16:47.794Z,98866.33
2018-09-25T09:19:24.210Z,98863.77
2018-09-25T09:22:00.439Z,98861.10
2018-09-25T09:24:36.862Z,98862.16
2018-09-25T09:27:13.609Z,98849.16
